Time;durP1;ratioP1;P1;durP2;ratioP2;P2;SDS_P1;SDS_P2;PMS_P1;PMS_P2;Temp;Humidity;BMP_temperature;BMP_pressure;BME280_temperature;BME280_humidity;BME280_pressure;Samples;Min_cycle;Max_cycle;Signal;HPM_P1;HPM_P2
2023/04/02 00:00:17;;;;;;;5.77;4.77;;;7.80;99.90;;;;;;5073755;28;20172;-48
2023/04/02 00:02:57;;;;;;;5.40;4.90;;;7.80;99.90;;;;;;5073700;28;20199;-47
2023/04/02 00:05:29;;;;;;;5.20;4.70;;;7.80;99.90;;;;;;5072590;28;20171;-50
2023/04/02 00:07:59;;;;;;;5.67;4.53;;;7.80;99.90;;;;;;5073409;28;20542;-49
2023/04/02 00:10:30;;;;;;;5.37;4.87;;;7.70;99.90;;;;;;5073652;28;20233;-48
2023/04/02 00:13:22;;;;;;;6.47;5.30;;;7.70;99.90;;;;;;5073313;28;20562;-48
2023/04/02 00:15:50;;;;;;;5.77;4.73;;;7.70;99.90;;;;;;5046899;28;20190;-47
2023/04/02 00:18:20;;;;;;;5.70;5.20;;;7.60;99.90;;;;;;5073571;28;20274;-47
2023/04/02 00:20:55;;;;;;;6.23;5.63;;;7.60;99.90;;;;;;5073376;28;20177;-47
2023/04/02 00:23:21;;;;;;;5.40;4.90;;;7.70;99.90;;;;;;5074026;28;20184;-48
2023/04/02 00:25:47;;;;;;;5.83;5.23;;;7.60;99.90;;;;;;5073128;28;20355;-47
2023/04/02 00:28:18;;;;;;;5.57;5.00;;;7.60;99.90;;;;;;5073187;28;20280;-48
2023/04/02 00:30:57;;;;;;;6.23;5.50;;;7.60;99.90;;;;;;5073350;28;20188;-47
2023/04/02 00:33:26;;;;;;;4.50;3.83;;;7.60;99.90;;;;;;5073329;28;20291;-49
2023/04/02 00:35:53;;;;;;;4.50;4.10;;;7.60;99.90;;;;;;5073052;28;20183;-46
2023/04/02 00:38:32;;;;;;;5.70;5.20;;;7.50;99.90;;;;;;5072975;28;20175;-46
2023/04/02 00:41:01;;;;;;;5.13;4.63;;;7.50;99.90;;;;;;5073160;28;20210;-47
2023/04/02 00:43:30;;;;;;;4.87;4.37;;;7.50;99.90;;;;;;5073175;28;20190;-47
2023/04/02 00:46:00;;;;;;;4.80;4.40;;;7.40;99.90;;;;;;5073261;28;20544;-49
2023/04/02 00:48:31;;;;;;;5.30;4.80;;;7.40;99.90;;;;;;5073220;28;20267;-48
2023/04/02 00:51:23;;;;;;;4.97;4.57;;;7.40;99.90;;;;;;5073059;28;20204;-48
2023/04/02 00:53:51;;;;;;;5.93;4.37;;;7.30;99.90;;;;;;5072803;28;20201;-47
2023/04/02 00:56:27;;;;;;;4.07;3.60;;;7.30;99.90;;;;;;5073020;28;20249;-49
2023/04/02 00:58:54;;;;;;;5.13;4.63;;;7.30;99.90;;;;;;5073167;28;20198;-47
2023/04/02 01:01:28;;;;;;;4.93;4.43;;;7.30;99.90;;;;;;5072744;28;20196;-47
2023/04/02 01:04:00;;;;;;;4.40;4.00;;;7.30;99.90;;;;;;5072824;28;20261;-47
2023/04/02 01:06:29;;;;;;;5.33;4.83;;;7.20;99.90;;;;;;5072825;28;20169;-52
2023/04/02 01:09:15;;;;;;;4.93;4.53;;;7.20;99.90;;;;;;5072727;28;20671;-53
2023/04/02 01:11:59;;;;;;;7.23;5.20;;;7.10;99.90;;;;;;5072720;28;20684;-52
2023/04/02 01:14:59;;;;;;;5.97;3.80;;;7.20;99.90;;;;;;5072970;28;20175;-51
2023/04/02 01:17:42;;;;;;;4.17;3.77;;;7.10;99.90;;;;;;5074456;28;20174;-52
2023/04/02 01:20:26;;;;;;;4.83;3.90;;;7.10;99.90;;;;;;5076259;28;20257;-51
2023/04/02 01:23:07;;;;;;;5.80;4.47;;;7.10;99.90;;;;;;5076777;28;20206;-50
2023/04/02 01:26:16;;;;;;;4.17;3.73;;;7.10;99.90;;;;;;5058351;28;20275;-51
2023/04/02 01:28:59;;;;;;;5.17;4.47;;;7.10;99.90;;;;;;5075342;28;20248;-53
2023/04/02 01:31:26;;;;;;;7.13;5.37;;;7.00;99.90;;;;;;5076217;28;20197;-53
2023/04/02 01:33:52;;;;;;;5.93;5.33;;;7.00;99.90;;;;;;5076105;28;20215;-53
2023/04/02 01:36:32;;;;;;;5.33;4.83;;;7.00;99.90;;;;;;5076278;28;20232;-51
2023/04/02 01:39:20;;;;;;;7.03;6.10;;;7.00;99.90;;;;;;5076227;28;20167;-53
2023/04/02 01:41:53;;;;;;;6.50;5.87;;;7.00;99.90;;;;;;5075966;28;20690;-50
2023/04/02 01:44:45;;;;;;;6.23;5.57;;;7.00;99.90;;;;;;5076129;28;20165;-50
2023/04/02 01:47:14;;;;;;;5.20;4.70;;;6.90;99.90;;;;;;5076242;28;20203;-50
2023/04/02 01:49:42;;;;;;;5.57;4.57;;;6.90;99.90;;;;;;5075967;28;20198;-50
2023/04/02 01:52:12;;;;;;;6.13;4.40;;;6.80;99.90;;;;;;5075573;28;20251;-51
2023/04/02 01:54:39;;;;;;;3.90;3.43;;;6.90;99.90;;;;;;5075899;28;20175;-50
2023/04/02 01:57:07;;;;;;;6.27;5.50;;;6.90;99.90;;;;;;5075535;28;20258;-51
2023/04/02 01:59:32;;;;;;;5.23;4.50;;;6.80;99.90;;;;;;5075542;28;20210;-49
2023/04/02 02:02:00;;;;;;;6.07;5.47;;;6.80;99.90;;;;;;5075426;28;20647;-51
2023/04/02 02:04:26;;;;;;;4.43;3.80;;;6.80;99.90;;;;;;5075760;28;20235;-50
2023/04/02 02:06:52;;;;;;;5.57;5.00;;;6.80;99.90;;;;;;5075649;28;20250;-50
2023/04/02 02:09:25;;;;;;;4.97;4.47;;;6.80;99.90;;;;;;5075750;28;20644;-52
2023/04/02 02:11:51;;;;;;;5.60;5.10;;;6.80;99.90;;;;;;5075201;28;20192;-50
2023/04/02 02:14:23;;;;;;;6.17;5.20;;;6.80;99.90;;;;;;5075786;28;20511;-49
2023/04/02 02:16:52;;;;;;;6.20;4.83;;;6.80;99.90;;;;;;5057467;28;20176;-50
2023/04/02 02:19:20;;;;;;;5.37;4.87;;;6.80;99.90;;;;;;5075470;28;20173;-50
2023/04/02 02:22:08;;;;;;;6.40;5.80;;;6.80;99.90;;;;;;5075052;28;20846;-50
2023/04/02 02:24:35;;;;;;;6.03;5.43;;;6.70;99.90;;;;;;5075172;28;20187;-51
2023/04/02 02:27:20;;;;;;;7.70;6.90;;;6.70;99.90;;;;;;5075305;28;20241;-50
2023/04/02 02:29:48;;;;;;;9.60;8.60;;;6.70;99.90;;;;;;5074341;28;20183;-51
2023/04/02 02:32:16;;;;;;;9.23;7.77;;;6.60;99.90;;;;;;5074827;28;20216;-51
2023/04/02 02:34:55;;;;;;;9.27;8.37;;;6.60;99.90;;;;;;5074895;28;20637;-50
2023/04/02 02:37:36;;;;;;;8.43;7.53;;;6.50;99.90;;;;;;5075390;28;20608;-53
2023/04/02 02:40:06;;;;;;;8.87;6.93;;;6.50;99.90;;;;;;5074816;28;20243;-51
2023/04/02 02:42:41;;;;;;;6.47;5.03;;;6.50;99.90;;;;;;5074878;28;20268;-54
2023/04/02 02:45:15;;;;;;;6.03;5.23;;;6.40;99.90;;;;;;5074941;28;20229;-50
2023/04/02 02:47:42;;;;;;;5.20;4.70;;;6.40;99.90;;;;;;5074881;28;20213;-53
2023/04/02 02:50:18;;;;;;;5.30;4.80;;;6.40;99.90;;;;;;5074550;28;20183;-54
2023/04/02 02:52:49;;;;;;;5.00;4.50;;;6.40;99.90;;;;;;5074372;28;20246;-52
2023/04/02 02:55:18;;;;;;;5.80;4.97;;;6.40;99.90;;;;;;5074725;28;20185;-52
2023/04/02 02:57:57;;;;;;;7.10;4.30;;;6.30;99.90;;;;;;5074601;28;20179;-51
2023/04/02 03:00:23;;;;;;;4.20;3.80;;;6.30;99.90;;;;;;5074899;28;20248;-53
2023/04/02 03:02:52;;;;;;;4.10;3.33;;;6.30;99.90;;;;;;5074246;28;20215;-50
2023/04/02 03:05:21;;;;;;;5.80;4.57;;;6.30;99.90;;;;;;5074284;28;20561;-51
2023/04/02 03:07:50;;;;;;;5.57;4.47;;;6.30;99.90;;;;;;5074534;28;20179;-53
2023/04/02 03:10:28;;;;;;;6.33;5.73;;;6.20;99.90;;;;;;5074790;28;20199;-53
2023/04/02 03:13:07;;;;;;;7.97;6.93;;;6.20;99.90;;;;;;5074326;28;20265;-52
2023/04/02 03:15:46;;;;;;;7.43;6.20;;;6.20;99.90;;;;;;5074442;28;20529;-51
2023/04/02 03:18:33;;;;;;;5.53;4.73;;;6.30;99.90;;;;;;5074022;28;20155;-52
2023/04/02 03:21:17;;;;;;;4.50;3.93;;;6.20;99.90;;;;;;5074044;28;20199;-46
2023/04/02 03:23:52;;;;;;;8.63;4.60;;;6.20;99.90;;;;;;5075004;28;20164;-49
2023/04/02 03:26:31;;;;;;;4.40;4.00;;;6.20;99.90;;;;;;5074172;28;20680;-47
2023/04/02 03:29:07;;;;;;;4.97;4.50;;;6.10;99.90;;;;;;5073647;28;20204;-48
2023/04/02 03:31:44;;;;;;;6.23;5.60;;;6.10;99.90;;;;;;5073960;28;20202;-48
2023/04/02 03:34:28;;;;;;;5.17;4.67;;;6.10;99.90;;;;;;5074518;28;20179;-46
2023/04/02 03:37:26;;;;;;;5.00;4.50;;;6.10;99.90;;;;;;5074034;28;20243;-46
2023/04/02 03:40:00;;;;;;;5.00;4.50;;;6.10;99.90;;;;;;5061212;28;20241;-48
2023/04/02 03:42:35;;;;;;;4.40;4.00;;;6.00;99.90;;;;;;5073648;28;20199;-46
2023/04/02 03:45:23;;;;;;;3.50;3.20;;;6.00;99.90;;;;;;5074215;28;20284;-47
2023/04/02 03:47:59;;;;;;;4.10;3.70;;;6.00;99.90;;;;;;5073948;28;20262;-46
2023/04/02 03:50:36;;;;;;;4.00;3.70;;;5.90;99.90;;;;;;5074417;28;20170;-47
2023/04/02 03:53:03;;;;;;;4.67;3.60;;;5.90;99.90;;;;;;5073773;28;20583;-45
2023/04/02 03:55:32;;;;;;;3.87;3.47;;;5.90;99.90;;;;;;5073689;28;20217;-45
2023/04/02 03:58:13;;;;;;;4.73;3.57;;;5.90;99.90;;;;;;5073453;28;20512;-46
2023/04/02 04:00:58;;;;;;;3.20;2.90;;;5.80;99.90;;;;;;5073474;28;20163;-44
2023/04/02 04:03:38;;;;;;;4.03;3.63;;;5.90;99.90;;;;;;5073677;28;20631;-46
2023/04/02 04:06:21;;;;;;;4.00;3.60;;;5.80;99.90;;;;;;5073381;28;20167;-46
2023/04/02 04:08:55;;;;;;;4.63;4.23;;;5.90;99.90;;;;;;5074153;28;20173;-48
2023/04/02 04:11:37;;;;;;;6.50;4.80;;;5.90;99.90;;;;;;5039205;28;20694;-46
2023/04/02 04:14:12;;;;;;;5.50;5.00;;;5.90;99.90;;;;;;5073489;28;20200;-47
2023/04/02 04:16:52;;;;;;;7.47;4.03;;;5.90;99.90;;;;;;5073548;28;20250;-47
2023/04/02 04:19:31;;;;;;;5.97;4.70;;;5.80;99.90;;;;;;5073522;28;20155;-47
2023/04/02 04:22:31;;;;;;;6.17;4.73;;;5.90;99.90;;;;;;5074792;28;20206;-49
2023/04/02 04:24:59;;;;;;;4.77;4.03;;;5.90;99.90;;;;;;5073167;28;20187;-52
2023/04/02 04:27:54;;;;;;;4.83;4.33;;;5.90;99.90;;;;;;5073496;28;20172;-49
2023/04/02 04:30:33;;;;;;;5.13;4.63;;;5.90;99.90;;;;;;5073370;28;20596;-50
2023/04/02 04:33:09;;;;;;;5.10;4.60;;;5.90;99.90;;;;;;5073365;28;20206;-51
2023/04/02 04:35:48;;;;;;;4.80;4.40;;;5.90;99.90;;;;;;5073050;28;20631;-48
2023/04/02 04:38:26;;;;;;;5.50;4.87;;;5.80;99.90;;;;;;5073375;28;20159;-49
2023/04/02 04:40:56;;;;;;;5.60;5.10;;;5.80;99.90;;;;;;5073275;28;20248;-51
2023/04/02 04:43:42;;;;;;;6.87;6.17;;;5.80;99.90;;;;;;5073316;28;20175;-51
2023/04/02 04:46:17;;;;;;;8.50;6.67;;;5.80;99.90;;;;;;5073351;28;20168;-49
2023/04/02 04:48:55;;;;;;;7.57;5.77;;;5.80;99.90;;;;;;5072945;28;20167;-51
2023/04/02 04:51:26;;;;;;;6.50;5.83;;;5.80;99.90;;;;;;5073014;28;20199;-50
2023/04/02 04:53:54;;;;;;;6.67;6.00;;;5.70;99.90;;;;;;5077164;28;20253;-50
2023/04/02 04:56:25;;;;;;;6.40;5.80;;;5.70;99.90;;;;;;5077002;28;20578;-49
2023/04/02 04:59:02;;;;;;;6.33;4.50;;;5.70;99.90;;;;;;5076699;28;20179;-50
2023/04/02 05:01:47;;;;;;;3.67;3.30;;;5.60;99.90;;;;;;5076741;28;20190;-49
2023/04/02 05:04:35;;;;;;;4.53;3.87;;;5.60;99.90;;;;;;5077429;28;20567;-50
2023/04/02 05:07:19;;;;;;;7.03;5.33;;;5.50;99.90;;;;;;5077137;28;20156;-50
2023/04/02 05:10:12;;;;;;;8.40;6.10;;;5.50;99.90;;;;;;5076871;28;20202;-51
2023/04/02 05:12:54;;;;;;;6.10;5.50;;;5.50;99.90;;;;;;5076363;28;20200;-51
2023/04/02 05:15:42;;;;;;;6.10;5.10;;;5.50;99.90;;;;;;5076655;28;20576;-49
2023/04/02 05:18:29;;;;;;;6.30;5.40;;;5.50;99.90;;;;;;5076263;28;20248;-50
2023/04/02 05:21:18;;;;;;;6.13;5.37;;;5.40;99.90;;;;;;5076519;28;20191;-51
2023/04/02 05:23:44;;;;;;;5.10;4.63;;;5.40;99.90;;;;;;5076885;28;20155;-48
2023/04/02 05:26:18;;;;;;;6.67;5.97;;;5.40;99.90;;;;;;5076474;28;20186;-47
2023/04/02 05:28:49;;;;;;;5.43;4.93;;;5.40;99.90;;;;;;5076093;28;20236;-47
2023/04/02 05:31:38;;;;;;;5.63;4.27;;;5.40;99.90;;;;;;5076349;28;20202;-46
2023/04/02 05:34:04;;;;;;;6.03;5.43;;;5.30;99.90;;;;;;5067743;28;20266;-46
2023/04/02 05:36:31;;;;;;;8.60;7.30;;;5.30;99.90;;;;;;5076314;28;20210;-47
2023/04/02 05:38:58;;;;;;;6.10;5.50;;;5.30;99.90;;;;;;5076300;28;20186;-47
2023/04/02 05:41:40;;;;;;;5.97;5.33;;;5.30;99.90;;;;;;5076192;28;20200;-49
2023/04/02 05:44:23;;;;;;;6.17;5.53;;;5.20;99.90;;;;;;5076613;28;20165;-46
2023/04/02 05:46:51;;;;;;;5.60;5.00;;;5.20;99.90;;;;;;5076222;28;20243;-45
2023/04/02 05:49:38;;;;;;;9.37;6.30;;;5.20;99.90;;;;;;5076017;28;20164;-48
2023/04/02 05:52:07;;;;;;;9.23;7.30;;;5.30;99.90;;;;;;5076482;28;20210;-47
2023/04/02 05:54:42;;;;;;;8.83;7.13;;;5.30;99.90;;;;;;5076205;28;20529;-48
2023/04/02 05:57:12;;;;;;;6.53;5.60;;;5.30;99.90;;;;;;5075966;28;20160;-47
2023/04/02 05:59:43;;;;;;;6.00;5.40;;;5.30;99.90;;;;;;5075967;28;20218;-47
2023/04/02 06:02:12;;;;;;;7.60;5.20;;;5.30;99.90;;;;;;5075608;28;20233;-48
2023/04/02 06:05:11;;;;;;;5.33;4.63;;;5.20;99.90;;;;;;5074101;28;20180;-48
2023/04/02 06:07:44;;;;;;;5.70;5.00;;;5.20;99.90;;;;;;5075564;28;20221;-47
2023/04/02 06:10:15;;;;;;;9.07;7.17;;;5.20;99.90;;;;;;5075358;28;20174;-47
2023/04/02 06:13:10;;;;;;;12.20;10.03;;;5.20;99.90;;;;;;5075230;28;20218;-48
2023/04/02 06:15:37;;;;;;;14.23;8.63;;;5.20;99.90;;;;;;5055071;28;20538;-48
2023/04/02 06:18:25;;;;;;;9.67;8.67;;;5.20;99.90;;;;;;5075262;28;20191;-46
2023/04/02 06:20:52;;;;;;;10.70;7.87;;;5.20;99.90;;;;;;5075928;28;20195;-47
2023/04/02 06:23:44;;;;;;;9.13;7.63;;;5.20;99.90;;;;;;5075740;28;20222;-46
2023/04/02 06:26:15;;;;;;;11.03;7.83;;;5.20;99.90;;;;;;5068357;28;20190;-44
2023/04/02 06:28:45;;;;;;;9.80;7.90;;;5.10;99.90;;;;;;5074934;28;20603;-48
2023/04/02 06:31:20;;;;;;;9.60;6.20;;;5.10;99.90;;;;;;5075364;28;20561;-46
2023/04/02 06:33:51;;;;;;;6.67;5.53;;;5.00;99.90;;;;;;5075495;28;20604;-47
2023/04/02 06:36:17;;;;;;;9.47;7.13;;;5.00;99.90;;;;;;5075348;28;20262;-47
2023/04/02 06:38:43;;;;;;;10.10;6.63;;;5.00;99.90;;;;;;5074880;28;20669;-45
2023/04/02 06:41:19;;;;;;;11.47;7.03;;;5.00;99.90;;;;;;5074779;28;20236;-46
2023/04/02 06:43:53;;;;;;;11.17;7.87;;;5.00;99.90;;;;;;5074738;28;20221;-48
2023/04/02 06:46:25;;;;;;;7.33;6.23;;;4.90;99.90;;;;;;5074790;28;20209;-46
2023/04/02 06:48:55;;;;;;;9.33;5.57;;;4.90;99.90;;;;;;5074978;28;20245;-48
2023/04/02 06:51:23;;;;;;;9.83;6.23;;;4.80;99.90;;;;;;5074736;28;20197;-48
2023/04/02 06:53:50;;;;;;;9.60;7.00;;;4.80;99.90;;;;;;5074689;28;20243;-47
2023/04/02 06:56:36;;;;;;;9.03;6.77;;;4.80;99.90;;;;;;5074819;28;20191;-46
2023/04/02 06:59:03;;;;;;;9.77;6.77;;;4.80;99.90;;;;;;5056740;28;20281;-50
2023/04/02 07:01:34;;;;;;;9.90;6.63;;;4.80;99.90;;;;;;5074473;28;20213;-49
2023/04/02 07:04:00;;;;;;;10.27;6.90;;;4.80;99.90;;;;;;5074627;28;20514;-51
2023/04/02 07:06:25;;;;;;;11.40;6.73;;;4.80;99.90;;;;;;5074334;28;20236;-49
2023/04/02 07:08:51;;;;;;;8.07;6.27;;;4.80;99.90;;;;;;5074223;28;20220;-50
2023/04/02 07:11:20;;;;;;;9.23;6.30;;;4.80;99.90;;;;;;5074339;28;20202;-49
2023/04/02 07:13:47;;;;;;;8.23;6.17;;;4.90;99.90;;;;;;5074072;28;20283;-51
2023/04/02 07:16:15;;;;;;;8.97;6.00;;;4.80;99.90;;;;;;5073723;28;20182;-52
2023/04/02 07:18:41;;;;;;;7.67;5.50;;;4.80;99.90;;;;;;5074276;28;20641;-51
2023/04/02 07:21:07;;;;;;;9.50;5.93;;;4.90;99.90;;;;;;5073957;28;20277;-49
2023/04/02 07:23:32;;;;;;;11.00;7.70;;;4.90;99.90;;;;;;5075483;28;20198;-50
2023/04/02 07:25:58;;;;;;;8.77;7.03;;;4.90;99.90;;;;;;5074120;28;20186;-50
2023/04/02 07:28:24;;;;;;;8.47;7.37;;;4.90;99.90;;;;;;5073759;28;20201;-49
2023/04/02 07:30:51;;;;;;;11.00;7.47;;;4.90;99.90;;;;;;5074041;28;20201;-51
2023/04/02 07:33:19;;;;;;;11.33;8.27;;;4.90;99.90;;;;;;5073698;28;20209;-50
2023/04/02 07:35:45;;;;;;;12.80;8.83;;;4.90;99.90;;;;;;5074037;28;20181;-50
2023/04/02 07:38:11;;;;;;;11.13;7.93;;;4.80;99.90;;;;;;5073723;28;20202;-49
2023/04/02 07:40:36;;;;;;;8.70;6.50;;;4.80;99.90;;;;;;5073664;28;20261;-49
2023/04/02 07:43:03;;;;;;;13.67;7.50;;;4.80;99.90;;;;;;5073940;28;20186;-51
2023/04/02 07:45:29;;;;;;;8.80;5.87;;;4.80;99.90;;;;;;5073645;28;20178;-50
2023/04/02 07:47:55;;;;;;;10.10;6.60;;;4.80;99.90;;;;;;5073867;28;20196;-51
2023/04/02 07:50:21;;;;;;;11.50;8.13;;;4.80;99.90;;;;;;5073538;28;20181;-52
2023/04/02 07:52:47;;;;;;;12.20;7.47;;;4.80;99.90;;;;;;5073657;28;20679;-51
2023/04/02 07:55:14;;;;;;;12.53;6.90;;;4.80;99.90;;;;;;5073541;28;20182;-50
2023/04/02 07:57:49;;;;;;;9.93;8.20;;;4.80;99.90;;;;;;5073429;28;20206;-51
2023/04/02 08:00:15;;;;;;;9.97;8.07;;;4.80;99.90;;;;;;5055583;28;20544;-51
2023/04/02 08:02:41;;;;;;;13.57;8.23;;;4.80;99.90;;;;;;5055344;28;20205;-53
2023/04/02 08:05:08;;;;;;;13.30;8.07;;;4.80;99.90;;;;;;5073384;28;20246;-51
2023/04/02 08:07:34;;;;;;;15.53;7.77;;;4.80;99.90;;;;;;5073366;28;20265;-50
2023/04/02 08:10:00;;;;;;;9.87;7.43;;;4.80;99.90;;;;;;5073632;28;20201;-51
2023/04/02 08:12:25;;;;;;;11.00;6.97;;;4.80;99.90;;;;;;5073192;28;20209;-51
2023/04/02 08:14:51;;;;;;;10.30;6.60;;;4.80;99.90;;;;;;5073610;28;20184;-50
2023/04/02 08:17:17;;;;;;;8.80;5.93;;;4.80;99.90;;;;;;5073264;28;20195;-50
2023/04/02 08:19:43;;;;;;;15.33;7.60;;;4.80;99.90;;;;;;5073258;28;20179;-50
2023/04/02 08:22:09;;;;;;;11.80;7.43;;;4.80;99.90;;;;;;5074272;28;20212;-50
2023/04/02 08:24:35;;;;;;;7.40;5.87;;;4.80;99.90;;;;;;5073456;28;20189;-51
2023/04/02 08:27:01;;;;;;;11.07;6.37;;;4.80;99.90;;;;;;5074528;28;20681;-51
2023/04/02 08:29:31;;;;;;;9.30;5.67;;;4.80;99.90;;;;;;5077198;28;20230;-52
2023/04/02 08:31:57;;;;;;;7.13;5.13;;;4.80;99.90;;;;;;5077380;28;20280;-53
2023/04/02 08:34:23;;;;;;;8.43;6.00;;;4.80;99.90;;;;;;5077179;28;20179;-52
2023/04/02 08:36:48;;;;;;;8.73;5.83;;;4.80;99.90;;;;;;5077254;28;20200;-49
2023/04/02 08:39:14;;;;;;;9.37;5.53;;;4.80;99.90;;;;;;5077361;28;20222;-50
2023/04/02 08:41:57;;;;;;;12.80;5.83;;;4.80;99.90;;;;;;5077207;28;20203;-50
2023/04/02 08:44:28;;;;;;;8.63;5.63;;;4.80;99.90;;;;;;5077375;28;20606;-51
2023/04/02 08:47:02;;;;;;;7.30;5.10;;;4.90;99.90;;;;;;5077348;28;20533;-51
2023/04/02 08:49:30;;;;;;;9.77;5.53;;;4.80;99.90;;;;;;5076957;28;20183;-51
2023/04/02 08:51:56;;;;;;;5.97;4.37;;;4.80;99.90;;;;;;5076794;28;20198;-52
2023/04/02 08:54:27;;;;;;;9.10;6.13;;;4.80;99.90;;;;;;5077151;28;20638;-50
2023/04/02 08:56:59;;;;;;;7.63;5.30;;;4.80;99.90;;;;;;5059261;28;20183;-51
2023/04/02 08:59:30;;;;;;;7.27;5.57;;;4.80;99.90;;;;;;5077356;28;20169;-52
2023/04/02 09:02:21;;;;;;;8.37;4.90;;;4.70;99.90;;;;;;5077029;28;20210;-51
2023/04/02 09:04:47;;;;;;;7.77;5.10;;;4.80;99.90;;;;;;5077411;28;20178;-51
2023/04/02 09:07:15;;;;;;;6.57;4.70;;;4.80;99.90;;;;;;5077363;28;20531;-50
2023/04/02 09:09:42;;;;;;;9.93;5.17;;;4.80;99.90;;;;;;5076497;28;20176;-53
2023/04/02 09:12:29;;;;;;;8.27;4.77;;;4.90;99.90;;;;;;5076332;28;20201;-52
2023/04/02 09:15:03;;;;;;;7.90;5.00;;;4.90;99.90;;;;;;5076329;28;20186;-52
2023/04/02 09:17:30;;;;;;;8.97;5.70;;;4.90;99.90;;;;;;5077226;28;20576;-53
2023/04/02 09:19:59;;;;;;;9.30;5.03;;;4.90;99.90;;;;;;5076616;28;20202;-51
2023/04/02 09:22:27;;;;;;;7.87;4.97;;;5.00;99.90;;;;;;5077134;28;20662;-52
2023/04/02 09:24:54;;;;;;;7.63;4.77;;;5.00;99.90;;;;;;5076579;28;20211;-51
2023/04/02 09:27:23;;;;;;;8.20;5.17;;;5.00;99.90;;;;;;5076316;28;20285;-50
2023/04/02 09:29:53;;;;;;;6.27;4.73;;;5.00;99.90;;;;;;5076476;28;20261;-51
2023/04/02 09:32:47;;;;;;;7.97;5.10;;;5.00;99.90;;;;;;5076552;28;20212;-53
2023/04/02 09:35:22;;;;;;;7.20;4.20;;;5.00;99.90;;;;;;5058148;28;20185;-53
2023/04/02 09:38:07;;;;;;;8.50;4.47;;;5.10;99.90;;;;;;5075999;28;20596;-52
2023/04/02 09:41:00;;;;;;;7.43;5.07;;;5.20;99.90;;;;;;5075907;28;20189;-51
2023/04/02 09:43:30;;;;;;;8.90;4.27;;;5.20;99.90;;;;;;5073509;28;20268;-54
2023/04/02 09:46:05;;;;;;;6.87;4.77;;;5.20;99.90;;;;;;5076150;28;20262;-51
2023/04/02 09:48:34;;;;;;;7.70;4.20;;;5.20;99.90;;;;;;5076230;28;20170;-51
2023/04/02 09:51:22;;;;;;;7.17;4.30;;;5.30;99.90;;;;;;5075953;28;20200;-52
2023/04/02 09:54:01;;;;;;;6.90;4.50;;;5.30;99.90;;;;;;5076109;28;20195;-50
2023/04/02 09:56:27;;;;;;;5.50;4.30;;;5.40;99.90;;;;;;5057887;28;20198;-51
2023/04/02 09:59:04;;;;;;;7.60;4.80;;;5.50;99.90;;;;;;5075628;28;20175;-46
2023/04/02 10:01:54;;;;;;;7.60;4.43;;;5.60;99.90;;;;;;5075752;28;20206;-45
2023/04/02 10:04:38;;;;;;;7.10;4.83;;;5.60;99.90;;;;;;5075628;28;20204;-46
2023/04/02 10:07:05;;;;;;;6.97;4.53;;;5.60;99.90;;;;;;5075743;28;20597;-46
2023/04/02 10:09:36;;;;;;;7.93;4.80;;;5.70;99.90;;;;;;5075679;28;20183;-48
2023/04/02 10:12:06;;;;;;;7.40;5.37;;;5.70;99.90;;;;;;5075381;28;20666;-48
2023/04/02 10:14:38;;;;;;;4.83;3.80;;;5.70;99.90;;;;;;5075752;28;20601;-48
2023/04/02 10:17:18;;;;;;;9.13;4.77;;;5.80;99.90;;;;;;5075283;28;20183;-47
2023/04/02 10:19:55;;;;;;;8.97;5.40;;;5.80;99.90;;;;;;5075773;28;20160;-47
2023/04/02 10:22:22;;;;;;;8.40;5.80;;;5.80;99.90;;;;;;5076341;28;20210;-47
2023/04/02 10:24:48;;;;;;;8.47;4.67;;;5.80;99.90;;;;;;5075618;28;20179;-47
2023/04/02 10:27:36;;;;;;;9.47;6.10;;;5.80;99.90;;;;;;5075478;28;20761;-46
2023/04/02 10:30:39;;;;;;;8.27;5.53;;;5.80;99.90;;;;;;5075439;28;20263;-48
2023/04/02 10:33:18;;;;;;;9.87;6.20;;;5.80;99.90;;;;;;5075630;28;20562;-47
2023/04/02 10:36:03;;;;;;;9.03;6.20;;;5.80;99.90;;;;;;5075194;28;20695;-44
2023/04/02 10:38:48;;;;;;;10.43;6.63;;;5.80;99.90;;;;;;5075165;28;20159;-45
2023/04/02 10:41:35;;;;;;;8.93;7.17;;;5.90;99.90;;;;;;5075096;28;20195;-47
2023/04/02 10:44:24;;;;;;;9.67;6.93;;;5.90;99.90;;;;;;5074693;28;20206;-45
2023/04/02 10:47:10;;;;;;;10.23;6.47;;;5.90;99.90;;;;;;5056741;28;20561;-46
2023/04/02 10:49:54;;;;;;;9.53;6.67;;;6.00;99.90;;;;;;5055954;28;20668;-47
2023/04/02 10:52:30;;;;;;;11.63;6.93;;;6.10;99.90;;;;;;5074461;28;20214;-44
2023/04/02 10:55:04;;;;;;;9.77;5.83;;;6.10;99.90;;;;;;5074493;28;20197;-46
2023/04/02 10:57:33;;;;;;;7.80;6.20;;;6.10;99.90;;;;;;5074748;28;20208;-43
2023/04/02 11:00:17;;;;;;;6.47;5.20;;;6.10;99.90;;;;;;5074587;28;20240;-46
2023/04/02 11:03:06;;;;;;;7.23;5.83;;;6.20;99.90;;;;;;5074317;28;20740;-44
2023/04/02 11:05:45;;;;;;;7.57;5.77;;;6.20;99.90;;;;;;5074367;28;20172;-45
2023/04/02 11:08:25;;;;;;;7.07;5.70;;;6.30;99.90;;;;;;5074621;28;20159;-47
2023/04/02 11:11:02;;;;;;;8.83;6.00;;;6.30;99.90;;;;;;5074264;28;20281;-46
2023/04/02 11:13:35;;;;;;;7.27;5.80;;;6.40;99.90;;;;;;5074370;28;20245;-44
2023/04/02 11:16:02;;;;;;;6.93;5.67;;;6.40;99.90;;;;;;5074691;28;20160;-46
2023/04/02 11:18:35;;;;;;;5.90;5.30;;;6.40;99.90;;;;;;5074355;28;20547;-45
2023/04/02 11:21:03;;;;;;;10.43;5.73;;;6.40;99.90;;;;;;5073988;28;20699;-46
2023/04/02 11:23:35;;;;;;;6.93;5.20;;;6.50;99.90;;;;;;5075187;28;20176;-47
2023/04/02 11:26:28;;;;;;;9.43;6.57;;;6.50;99.90;;;;;;5074083;28;20194;-46
2023/04/02 11:29:14;;;;;;;6.67;5.47;;;6.50;99.90;;;;;;5073887;28;20223;-46
2023/04/02 11:31:41;;;;;;;6.33;4.60;;;6.50;99.90;;;;;;5074158;28;20207;-47
2023/04/02 11:34:12;;;;;;;9.33;6.10;;;6.50;99.90;;;;;;5057142;28;20239;-52
2023/04/02 11:36:51;;;;;;;5.30;4.30;;;6.60;99.90;;;;;;5073812;28;20156;-51
2023/04/02 11:39:45;;;;;;;5.63;4.30;;;6.70;99.90;;;;;;5073935;28;20183;-50
2023/04/02 11:42:34;;;;;;;6.40;3.90;;;6.70;99.90;;;;;;5073622;28;20191;-51
2023/04/02 11:45:27;;;;;;;6.53;3.97;;;6.60;99.90;;;;;;5073960;28;20604;-51
2023/04/02 11:48:07;;;;;;;6.57;4.53;;;6.60;99.90;;;;;;5055630;28;20164;-49
2023/04/02 11:50:35;;;;;;;4.53;4.00;;;6.70;99.90;;;;;;5073761;28;20520;-51
2023/04/02 11:53:04;;;;;;;7.30;4.13;;;6.70;99.90;;;;;;5073387;28;20207;-51
2023/04/02 11:55:31;;;;;;;5.00;3.30;;;6.70;99.90;;;;;;5073548;28;20241;-51
2023/04/02 11:58:24;;;;;;;7.60;3.87;;;6.70;99.90;;;;;;5073478;28;20179;-51
2023/04/02 12:01:08;;;;;;;9.80;3.57;;;6.70;99.90;;;;;;5073237;28;20277;-52
2023/04/02 12:03:51;;;;;;;9.47;4.17;;;6.70;99.90;;;;;;5055502;28;20163;-51
2023/04/02 12:06:29;;;;;;;4.20;3.17;;;6.70;99.90;;;;;;5073712;28;20173;-50
2023/04/02 12:09:22;;;;;;;4.93;2.70;;;6.70;99.90;;;;;;5073451;28;20167;-48
2023/04/02 12:11:52;;;;;;;4.53;2.93;;;6.70;99.90;;;;;;5055284;28;20194;-48
2023/04/02 12:14:36;;;;;;;6.73;3.57;;;6.70;99.90;;;;;;5073535;28;20232;-49
2023/04/02 12:17:04;;;;;;;6.37;3.37;;;6.70;99.90;;;;;;5074393;28;20176;-50
2023/04/02 12:19:30;;;;;;;4.20;3.20;;;6.70;99.90;;;;;;5073255;28;20179;-54
2023/04/02 12:21:58;;;;;;;5.40;3.33;;;6.70;99.90;;;;;;5074901;28;20187;-53
2023/04/02 12:24:29;;;;;;;9.90;3.77;;;6.70;99.90;;;;;;5073528;28;20530;-52
2023/04/02 12:27:15;;;;;;;5.30;3.73;;;6.70;99.90;;;;;;5073481;28;20168;-53
2023/04/02 12:29:41;;;;;;;6.33;3.97;;;6.70;99.90;;;;;;5055239;28;20199;-53
2023/04/02 12:32:24;;;;;;;4.33;3.70;;;6.70;99.90;;;;;;5073038;28;20256;-52
2023/04/02 12:34:52;;;;;;;5.03;3.90;;;6.70;99.90;;;;;;5073403;28;20638;-53
2023/04/02 12:37:24;;;;;;;7.60;4.10;;;6.70;99.90;;;;;;5073114;28;20165;-54
2023/04/02 12:40:00;;;;;;;5.63;3.73;;;6.80;99.90;;;;;;5073374;28;20697;-52
2023/04/02 12:42:34;;;;;;;4.70;3.60;;;6.80;99.90;;;;;;5073244;28;20270;-53
2023/04/02 12:45:00;;;;;;;8.77;5.80;;;6.80;99.90;;;;;;5072956;28;20180;-50
2023/04/02 12:47:27;;;;;;;5.37;3.83;;;6.80;99.90;;;;;;5073024;28;20356;-54
2023/04/02 12:49:55;;;;;;;5.80;3.77;;;6.90;99.90;;;;;;5073028;28;20181;-52
2023/04/02 12:52:27;;;;;;;3.53;3.23;;;6.90;99.90;;;;;;5072729;28;20699;-53
2023/04/02 12:54:59;;;;;;;4.10;3.33;;;6.90;99.90;;;;;;5072954;28;20638;-52
2023/04/02 12:57:24;;;;;;;8.97;3.30;;;7.00;99.90;;;;;;5072899;28;20655;-51
2023/04/02 12:59:51;;;;;;;2.93;2.63;;;7.00;99.90;;;;;;5073123;28;20171;-53
2023/04/02 13:02:43;;;;;;;5.77;3.73;;;7.10;99.90;;;;;;5072875;28;20200;-52
2023/04/02 13:05:10;;;;;;;5.07;3.00;;;7.10;99.90;;;;;;5066243;28;20185;-53
2023/04/02 13:07:36;;;;;;;3.30;2.60;;;7.10;99.90;;;;;;5073144;28;20176;-51
2023/04/02 13:10:26;;;;;;;5.13;3.20;;;7.00;99.90;;;;;;5072775;28;20168;-51
2023/04/02 13:13:00;;;;;;;5.10;3.13;;;7.00;99.90;;;;;;5073084;28;20217;-52
2023/04/02 13:15:30;;;;;;;4.67;3.20;;;7.00;99.90;;;;;;5076835;28;20541;-50
2023/04/02 13:18:20;;;;;;;5.80;3.10;;;7.00;99.90;;;;;;5076725;28;20176;-52
2023/04/02 13:21:01;;;;;;;5.83;3.30;;;7.00;99.90;;;;;;5076333;28;20164;-50
2023/04/02 13:23:30;;;;;;;8.03;3.43;;;7.10;99.90;;;;;;5077766;28;20176;-51
2023/04/02 13:25:58;;;;;;;4.73;3.37;;;7.10;99.90;;;;;;5076273;28;20233;-51
2023/04/02 13:28:24;;;;;;;5.50;3.70;;;7.10;99.90;;;;;;5076121;28;20246;-52
2023/04/02 13:30:49;;;;;;;7.17;3.53;;;7.20;99.90;;;;;;5076100;28;20204;-50
2023/04/02 13:33:16;;;;;;;4.20;3.47;;;7.20;99.90;;;;;;5076304;28;20663;-52